• Join FlightAware (Why Join?)
  • Login
  • US Flag 
03:49PM EST


 

Airport Tracker/Info


-or-


 

Live Flight TrackerFlight Track Log ✈ RPA3228 ✈ 11-May-2013 ✈ KBNA - KDCA

Flight Track Log - Related Links

Times and Time Zones

All times are in EDT time to prevent confusion due to time zone crossing. See the RPA3228 flight status page for this flight to view local times or setup timezone preferences in your user account.

Time Position Orientation Groundspeed Altitude Reporting Facility
EDT Latitude Longitude Course Direction KTS MPH feet Rate Location/Type
07:42AM 36.1333 -86.6833 64° Northeast 141 162 1,500  Level Nashville TRACON
07:43AM 36.1500 -86.7667 284° West 219 252 3,600 2,040 Climbing Nashville TRACON
07:44AM 36.2000 -86.7333 28° Northeast 293 337 5,900 2,340 Climbing Nashville TRACON
07:45AM 36.1612 -86.2944 76° East  Level FlightAware Approximate
07:45AM 36.1969 -86.6458 92° East 308 354 7,900  Level Memphis Center
07:46AM 36.1850 -86.1719 80° East  Level FlightAware Approximate
07:46AM 36.1978 -86.5403 89° East 327 376 10,900  Level Memphis Center
07:47AM 36.2069 -86.0495 64° Northeast  Level FlightAware Approximate
07:47AM 36.1986 -86.4297 89° East 321 369 13,200  Level Memphis Center
07:48AM 36.1989 -86.3089 90° East 336 387 15,700 2,400 Climbing Memphis Center
07:49AM 36.1989 -86.1881 90° East 344 396 18,000 1,920 Climbing Memphis Center
07:50AM 36.2072 -86.0614 85° East 354 407 19,600 1,620 Climbing Memphis Center
07:53AM 36.3378 -85.7644 61° Northeast 402 463 23,800 1,620 Climbing Indianapolis Center
07:54AM 36.3967 -85.6417 59° Northeast 413 475 25,400 1,320 Climbing Indianapolis Center
07:55AM 36.4569 -85.5150 59° Northeast 422 486 26,600 1,260 Climbing Indianapolis Center
07:56AM 36.5189 -85.3817 60° Northeast 439 505 28,000 1,260 Climbing Indianapolis Center
07:57AM 36.5850 -85.2453 59° Northeast 454 522 29,200 1,080 Climbing Indianapolis Center
07:58AM 36.6528 -85.1042 59° Northeast 470 541 30,300 1,080 Climbing Indianapolis Center
07:59AM 36.7278 -84.9614 57° Northeast 487 560 31,400 780 Climbing Indianapolis Center
08:00AM 36.8042 -84.8150 57° Northeast 499 574 32,000 240 Climbing Indianapolis Center
08:01AM 36.8806 -84.6689 57° Northeast 501 577 32,000 240 Level Indianapolis Center
08:02AM 36.9572 -84.5044 60° Northeast 513 590 32,600 480 Climbing Indianapolis Center
08:03AM 37.0017 -84.3328 72° East 520 598 33,000 180 Climbing Indianapolis Center
08:04AM 37.0456 -84.1622 72° East 517 595 33,000  Level Indianapolis Center
08:05AM 37.0883 -83.9906 73° East 515 593 33,000  Level Indianapolis Center
08:06AM 37.1347 -83.8181 71° East 517 595 33,000  Level Indianapolis Center
08:07AM 37.1778 -83.6433 73° East 523 602 33,000  Level Indianapolis Center
08:08AM 37.2203 -83.4719 73° East 514 592 33,000  Level Indianapolis Center
08:09AM 37.2642 -83.3006 72° East 511 588 33,000  Level Indianapolis Center
08:10AM 37.3072 -83.1253 73° East 520 598 33,000  Level Indianapolis Center
08:11AM 37.3497 -82.9500 73° East 519 597 33,000  Level Indianapolis Center
08:12AM 37.3931 -82.7772 72° East 514 592 33,000  Level Indianapolis Center
08:13AM 37.4356 -82.6050 73° East 512 589 33,000  Level Indianapolis Center
08:14AM 37.4767 -82.4317 73° East 514 592 33,000  Level Indianapolis Center
08:15AM 37.5172 -82.2578 74° East 515 593 33,000  Level Indianapolis Center
08:16AM 37.5603 -82.0842 73° East 517 595 33,000  Level Indianapolis Center
08:17AM 37.5994 -81.9081 74° East 520 598 33,000  Level Indianapolis Center
08:18AM 37.6472 -81.7042 73° East 519 597 33,000  Level Indianapolis Center
08:19AM 37.6881 -81.5300 73° East 517 595 33,000  Level Indianapolis Center
08:20AM 37.7253 -81.3708 73° East 513 590 33,000  Level Indianapolis Center
08:21AM 37.7625 -81.2053 74° East 507 583 33,000  Level Indianapolis Center
08:21AM 37.7778 -81.1411 73° East 501 577 33,000  Level Washington Center
08:22AM 37.8311 -80.9819 67° East 489 563 33,000  Level Washington Center
08:24AM 37.8883 -80.8178 66° East 489 563 33,000  Level Washington Center
08:24AM 37.9381 -80.6789 66° East 489 563 33,000  Level Washington Center
08:25AM 37.9947 -80.5219 65° Northeast 489 563 33,000  Level Washington Center
08:26AM 38.0450 -80.3619 68° East 489 563 33,000  Level Washington Center
08:27AM 38.0911 -80.1986 70° East 484 557 33,000  Level Washington Center
08:28AM 38.1347 -80.0400 71° East 478 550 33,000  Level Washington Center
08:29AM 38.1831 -79.8581 71° East 484 557 33,000  Level Washington Center
08:30AM 38.2281 -79.6967 70° East 484 557 33,000  Level Washington Center
08:31AM 38.2714 -79.5297 72° East 484 557 33,000  Level Washington Center
08:32AM 38.3142 -79.3681 71° East 489 563 33,000  Level Washington Center
08:33AM 38.3567 -79.2061 71° East 489 563 33,000 -1,200 Level Washington Center
08:34AM 38.3964 -79.0542 72° East 489 563 30,700 -2,460 Descending Washington Center
08:35AM 38.4364 -78.8969 72° East 483 556 28,200 -2,220 Descending Washington Center
08:36AM 38.4808 -78.7214 72° East 471 542 26,300 -2,340 Descending Washington Center
08:37AM 38.5111 -78.5925 73° East 449 517 23,500 -2,460 Descending Washington Center
08:38AM 38.5481 -78.4508 72° East 436 502 21,300 -2,160 Descending Washington Center
08:39AM 38.5825 -78.3139 72° East 412 474 19,200 -2,040 Descending Washington Center
08:41AM 38.6164 -78.1903 71° East 390 449 17,300 -1,620 Descending Washington Center
08:41AM 38.6169 -78.0708 90° East 345 397 16,100 -1,500 Descending Washington Center
08:42AM 38.5942 -77.9583 104° East 330 380 14,400 -1,740 Descending Washington Center
08:44AM 38.6600 -77.8861 41° Northeast 278 320 12,600 -1,740 Descending Washington Center
08:44AM 38.7444 -77.8381 24° Northeast 276 318 11,000 -840 Descending Washington Center
08:45AM 38.8003 -77.7414 53° Northeast 300 345 11,000 -480 Level Washington Center
08:46AM 38.8628 -77.6364 53° Northeast 336 387 10,100 -1,260 Descending Washington Center
08:47AM 38.9167 -77.5500 51° Northeast 329 379 8,500 -1,500 Descending Potomac TRACON
08:48AM 38.9500 -77.4333 70° East 322 371 7,200 -780 Descending Potomac TRACON
08:49AM 38.9167 -77.3667 123° Southeast 236 272 7,000 -120 Descending Potomac TRACON
08:50AM 38.8833 -77.3167 131° Southeast 197 227 7,000 -240 Level Potomac TRACON
08:51AM 38.8333 -77.2667 142° Southeast 197 227 6,600 -540 Descending Potomac TRACON
08:52AM 38.8333 -77.2000 90° East 223 257 6,000 -360 Descending Potomac TRACON
08:53AM 38.8833 -77.1833 15° North 220 253 6,000  Level Potomac TRACON
08:54AM 38.9167 -77.2167 322° Northwest 178 205 6,000  Level Potomac TRACON
08:55AM 38.9500 -77.2667 311° West 172 198 6,000  Level Potomac TRACON
08:56AM 38.9833 -77.3000 322° Northwest 174 200 6,000 -180 Level Potomac TRACON
08:57AM 39.0167 -77.3500 311° West 195 224 5,700 -660 Descending Potomac TRACON
08:58AM 39.0500 -77.2833 57° Northeast 222 255 4,800 -1,140 Descending Potomac TRACON
08:59AM 39.0500 -77.2333 90° East 212 244 3,700 -960 Descending Potomac TRACON
09:00AM 39.0167 -77.1833 131° Southeast 181 208 3,000 -540 Descending Potomac TRACON
09:01AM 38.9667 -77.1500 153° Southeast 180 207 2,700 -300 Descending Potomac TRACON